sensor_id;sensor_type;location;lat;lon;timestamp;P1;durP1;ratioP1;P2;durP2;ratioP2
11004;SDS011;5555;59.622;16.556;2022-12-01T00:01:25;60.40;;;14.57;;
11004;SDS011;5555;59.622;16.556;2022-12-01T00:03:51;73.43;;;15.50;;
11004;SDS011;5555;59.622;16.556;2022-12-01T00:06:18;53.33;;;14.37;;
11004;SDS011;5555;59.622;16.556;2022-12-01T00:08:46;50.33;;;14.00;;
11004;SDS011;5555;59.622;16.556;2022-12-01T00:11:33;61.47;;;14.80;;
11004;SDS011;5555;59.622;16.556;2022-12-01T00:13:59;49.43;;;13.50;;
11004;SDS011;5555;59.622;16.556;2022-12-01T00:16:25;40.43;;;14.20;;
11004;SDS011;5555;59.622;16.556;2022-12-01T00:18:51;38.43;;;14.07;;
11004;SDS011;5555;59.622;16.556;2022-12-01T00:21:18;46.53;;;13.90;;
11004;SDS011;5555;59.622;16.556;2022-12-01T00:23:46;38.00;;;13.60;;
11004;SDS011;5555;59.622;16.556;2022-12-01T00:26:14;31.70;;;12.37;;
11004;SDS011;5555;59.622;16.556;2022-12-01T00:28:40;29.87;;;11.93;;
11004;SDS011;5555;59.622;16.556;2022-12-01T00:31:09;30.63;;;11.50;;
11004;SDS011;5555;59.622;16.556;2022-12-01T00:33:36;19.93;;;10.90;;
11004;SDS011;5555;59.622;16.556;2022-12-01T00:36:02;36.13;;;13.37;;
11004;SDS011;5555;59.622;16.556;2022-12-01T00:38:28;29.37;;;12.43;;
11004;SDS011;5555;59.622;16.556;2022-12-01T00:40:54;24.03;;;10.87;;
11004;SDS011;5555;59.622;16.556;2022-12-01T00:43:20;23.13;;;10.30;;
11004;SDS011;5555;59.622;16.556;2022-12-01T00:45:46;20.53;;;10.83;;
11004;SDS011;5555;59.622;16.556;2022-12-01T00:48:11;19.93;;;10.60;;
11004;SDS011;5555;59.622;16.556;2022-12-01T00:50:37;18.27;;;10.43;;
11004;SDS011;5555;59.622;16.556;2022-12-01T00:53:03;16.63;;;9.90;;
11004;SDS011;5555;59.622;16.556;2022-12-01T00:55:28;19.80;;;10.40;;
11004;SDS011;5555;59.622;16.556;2022-12-01T00:57:54;17.33;;;9.17;;
11004;SDS011;5555;59.622;16.556;2022-12-01T01:00:19;16.43;;;9.63;;
11004;SDS011;5555;59.622;16.556;2022-12-01T01:02:45;16.00;;;9.47;;
11004;SDS011;5555;59.622;16.556;2022-12-01T01:05:11;17.10;;;9.90;;
11004;SDS011;5555;59.622;16.556;2022-12-01T01:07:37;16.03;;;9.17;;
11004;SDS011;5555;59.622;16.556;2022-12-01T01:10:03;18.90;;;9.87;;
11004;SDS011;5555;59.622;16.556;2022-12-01T01:12:29;15.57;;;9.30;;
11004;SDS011;5555;59.622;16.556;2022-12-01T01:14:55;16.27;;;9.50;;
11004;SDS011;5555;59.622;16.556;2022-12-01T01:17:20;14.83;;;9.13;;
11004;SDS011;5555;59.622;16.556;2022-12-01T01:19:46;16.37;;;9.13;;
11004;SDS011;5555;59.622;16.556;2022-12-01T01:22:12;14.40;;;8.83;;
11004;SDS011;5555;59.622;16.556;2022-12-01T01:24:37;14.03;;;9.03;;
11004;SDS011;5555;59.622;16.556;2022-12-01T01:27:03;14.63;;;8.30;;
11004;SDS011;5555;59.622;16.556;2022-12-01T01:29:30;13.73;;;8.13;;
11004;SDS011;5555;59.622;16.556;2022-12-01T01:31:56;13.57;;;7.97;;
11004;SDS011;5555;59.622;16.556;2022-12-01T01:34:22;11.73;;;8.07;;
11004;SDS011;5555;59.622;16.556;2022-12-01T01:36:47;13.63;;;8.07;;
11004;SDS011;5555;59.622;16.556;2022-12-01T01:39:13;10.17;;;5.87;;
11004;SDS011;5555;59.622;16.556;2022-12-01T01:41:39;14.23;;;8.17;;
11004;SDS011;5555;59.622;16.556;2022-12-01T01:47:08;12.20;;;7.63;;
11004;SDS011;5555;59.622;16.556;2022-12-01T01:49:35;13.83;;;7.20;;
11004;SDS011;5555;59.622;16.556;2022-12-01T01:52:01;13.33;;;7.90;;
11004;SDS011;5555;59.622;16.556;2022-12-01T01:54:35;12.40;;;7.80;;
11004;SDS011;5555;59.622;16.556;2022-12-01T01:57:04;13.80;;;7.83;;
11004;SDS011;5555;59.622;16.556;2022-12-01T01:59:33;15.33;;;8.00;;
11004;SDS011;5555;59.622;16.556;2022-12-01T02:02:05;12.17;;;7.03;;
11004;SDS011;5555;59.622;16.556;2022-12-01T02:04:34;12.30;;;8.23;;
11004;SDS011;5555;59.622;16.556;2022-12-01T02:07:01;11.43;;;7.50;;
11004;SDS011;5555;59.622;16.556;2022-12-01T02:09:27;12.93;;;7.63;;
11004;SDS011;5555;59.622;16.556;2022-12-01T02:15:02;13.30;;;8.47;;
11004;SDS011;5555;59.622;16.556;2022-12-01T02:28:56;11.83;;;7.67;;
11004;SDS011;5555;59.622;16.556;2022-12-01T02:42:31;13.73;;;8.57;;
11004;SDS011;5555;59.622;16.556;2022-12-01T02:48:28;12.27;;;8.00;;
11004;SDS011;5555;59.622;16.556;2022-12-01T02:50:58;13.43;;;8.03;;
11004;SDS011;5555;59.622;16.556;2022-12-01T02:53:34;13.80;;;8.40;;
11004;SDS011;5555;59.622;16.556;2022-12-01T02:56:00;12.90;;;8.07;;
11004;SDS011;5555;59.622;16.556;2022-12-01T02:58:29;14.13;;;8.57;;
11004;SDS011;5555;59.622;16.556;2022-12-01T03:03:43;13.03;;;8.53;;
11004;SDS011;5555;59.622;16.556;2022-12-01T03:06:18;12.37;;;8.27;;
11004;SDS011;5555;59.622;16.556;2022-12-01T03:09:17;15.27;;;8.77;;
11004;SDS011;5555;59.622;16.556;2022-12-01T03:11:52;13.37;;;8.63;;
11004;SDS011;5555;59.622;16.556;2022-12-01T03:16:56;12.60;;;8.30;;
11004;SDS011;5555;59.622;16.556;2022-12-01T03:19:36;14.33;;;8.67;;
11004;SDS011;5555;59.622;16.556;2022-12-01T03:22:09;12.87;;;8.03;;
11004;SDS011;5555;59.622;16.556;2022-12-01T03:24:39;11.80;;;8.57;;
11004;SDS011;5555;59.622;16.556;2022-12-01T03:27:09;13.67;;;8.90;;
11004;SDS011;5555;59.622;16.556;2022-12-01T03:29:38;13.33;;;9.63;;
11004;SDS011;5555;59.622;16.556;2022-12-01T03:32:11;15.30;;;9.83;;
11004;SDS011;5555;59.622;16.556;2022-12-01T03:35:03;13.60;;;8.70;;
11004;SDS011;5555;59.622;16.556;2022-12-01T03:37:45;15.40;;;9.73;;
11004;SDS011;5555;59.622;16.556;2022-12-01T03:40:20;11.03;;;7.83;;
11004;SDS011;5555;59.622;16.556;2022-12-01T03:46:01;15.20;;;9.57;;
11004;SDS011;5555;59.622;16.556;2022-12-01T03:48:38;13.10;;;8.50;;
11004;SDS011;5555;59.622;16.556;2022-12-01T03:56:17;12.60;;;8.93;;
11004;SDS011;5555;59.622;16.556;2022-12-01T03:58:46;13.80;;;8.87;;
11004;SDS011;5555;59.622;16.556;2022-12-01T04:01:15;15.00;;;9.90;;
11004;SDS011;5555;59.622;16.556;2022-12-01T04:03:41;15.60;;;10.63;;
11004;SDS011;5555;59.622;16.556;2022-12-01T04:06:09;13.23;;;8.97;;
11004;SDS011;5555;59.622;16.556;2022-12-01T04:08:34;12.57;;;9.37;;
11004;SDS011;5555;59.622;16.556;2022-12-01T04:11:01;12.87;;;8.60;;
11004;SDS011;5555;59.622;16.556;2022-12-01T04:13:47;14.07;;;9.47;;
11004;SDS011;5555;59.622;16.556;2022-12-01T04:16:12;15.50;;;9.60;;
11004;SDS011;5555;59.622;16.556;2022-12-01T04:18:38;16.30;;;9.40;;
11004;SDS011;5555;59.622;16.556;2022-12-01T04:21:04;16.13;;;9.73;;
11004;SDS011;5555;59.622;16.556;2022-12-01T04:23:30;13.30;;;8.93;;
11004;SDS011;5555;59.622;16.556;2022-12-01T04:26:14;13.63;;;8.87;;
11004;SDS011;5555;59.622;16.556;2022-12-01T04:28:39;13.63;;;9.40;;
11004;SDS011;5555;59.622;16.556;2022-12-01T04:31:05;12.40;;;9.83;;
11004;SDS011;5555;59.622;16.556;2022-12-01T04:33:31;13.40;;;9.27;;
11004;SDS011;5555;59.622;16.556;2022-12-01T04:35:57;14.07;;;9.63;;
11004;SDS011;5555;59.622;16.556;2022-12-01T04:38:23;13.97;;;9.40;;
11004;SDS011;5555;59.622;16.556;2022-12-01T04:40:49;16.07;;;10.60;;
11004;SDS011;5555;59.622;16.556;2022-12-01T04:43:15;15.70;;;10.13;;
11004;SDS011;5555;59.622;16.556;2022-12-01T04:45:41;16.83;;;10.13;;
11004;SDS011;5555;59.622;16.556;2022-12-01T04:48:06;16.07;;;10.07;;
11004;SDS011;5555;59.622;16.556;2022-12-01T04:50:32;14.90;;;9.93;;
11004;SDS011;5555;59.622;16.556;2022-12-01T04:52:57;19.80;;;10.90;;
11004;SDS011;5555;59.622;16.556;2022-12-01T04:55:23;15.27;;;10.40;;
11004;SDS011;5555;59.622;16.556;2022-12-01T04:57:49;17.13;;;10.07;;
11004;SDS011;5555;59.622;16.556;2022-12-01T05:00:16;14.87;;;9.83;;
11004;SDS011;5555;59.622;16.556;2022-12-01T05:02:42;17.97;;;10.23;;
11004;SDS011;5555;59.622;16.556;2022-12-01T05:05:11;17.60;;;10.80;;
11004;SDS011;5555;59.622;16.556;2022-12-01T05:07:38;15.87;;;10.37;;
11004;SDS011;5555;59.622;16.556;2022-12-01T05:10:04;16.93;;;10.10;;
11004;SDS011;5555;59.622;16.556;2022-12-01T05:12:31;14.47;;;10.30;;
11004;SDS011;5555;59.622;16.556;2022-12-01T05:14:56;14.70;;;9.87;;
11004;SDS011;5555;59.622;16.556;2022-12-01T05:17:22;14.83;;;10.37;;
11004;SDS011;5555;59.622;16.556;2022-12-01T05:19:48;16.10;;;10.77;;
11004;SDS011;5555;59.622;16.556;2022-12-01T05:22:32;17.93;;;11.03;;
11004;SDS011;5555;59.622;16.556;2022-12-01T05:24:57;15.97;;;11.17;;
11004;SDS011;5555;59.622;16.556;2022-12-01T05:27:23;17.27;;;12.20;;
11004;SDS011;5555;59.622;16.556;2022-12-01T05:29:49;15.83;;;10.43;;
11004;SDS011;5555;59.622;16.556;2022-12-01T05:32:14;15.83;;;11.13;;
11004;SDS011;5555;59.622;16.556;2022-12-01T05:34:40;18.40;;;11.37;;
11004;SDS011;5555;59.622;16.556;2022-12-01T05:37:05;18.40;;;11.40;;
11004;SDS011;5555;59.622;16.556;2022-12-01T05:39:31;16.13;;;10.60;;
11004;SDS011;5555;59.622;16.556;2022-12-01T05:41:57;16.27;;;10.27;;
11004;SDS011;5555;59.622;16.556;2022-12-01T05:44:22;15.27;;;10.87;;
11004;SDS011;5555;59.622;16.556;2022-12-01T05:46:48;17.93;;;11.37;;
11004;SDS011;5555;59.622;16.556;2022-12-01T05:49:14;18.03;;;11.67;;
11004;SDS011;5555;59.622;16.556;2022-12-01T05:51:41;15.47;;;10.37;;
11004;SDS011;5555;59.622;16.556;2022-12-01T05:54:07;14.83;;;11.20;;
11004;SDS011;5555;59.622;16.556;2022-12-01T05:56:32;19.10;;;11.70;;
11004;SDS011;5555;59.622;16.556;2022-12-01T05:58:58;17.87;;;11.37;;
11004;SDS011;5555;59.622;16.556;2022-12-01T06:01:24;17.40;;;11.77;;
11004;SDS011;5555;59.622;16.556;2022-12-01T06:03:49;19.13;;;11.73;;
11004;SDS011;5555;59.622;16.556;2022-12-01T06:06:17;19.67;;;11.47;;
11004;SDS011;5555;59.622;16.556;2022-12-01T06:08:42;16.23;;;11.53;;
11004;SDS011;5555;59.622;16.556;2022-12-01T06:11:08;18.73;;;11.40;;
11004;SDS011;5555;59.622;16.556;2022-12-01T06:13:34;15.70;;;11.37;;
11004;SDS011;5555;59.622;16.556;2022-12-01T06:16:00;17.17;;;11.90;;
11004;SDS011;5555;59.622;16.556;2022-12-01T06:18:32;15.53;;;11.27;;
11004;SDS011;5555;59.622;16.556;2022-12-01T06:20:59;17.20;;;10.67;;
11004;SDS011;5555;59.622;16.556;2022-12-01T06:23:25;17.10;;;10.30;;
11004;SDS011;5555;59.622;16.556;2022-12-01T06:25:51;16.83;;;11.27;;
11004;SDS011;5555;59.622;16.556;2022-12-01T06:28:17;15.87;;;10.40;;
11004;SDS011;5555;59.622;16.556;2022-12-01T06:30:43;16.67;;;10.53;;
11004;SDS011;5555;59.622;16.556;2022-12-01T06:33:08;14.83;;;10.83;;
11004;SDS011;5555;59.622;16.556;2022-12-01T06:35:34;15.10;;;10.37;;
11004;SDS011;5555;59.622;16.556;2022-12-01T06:38:00;16.30;;;10.70;;
11004;SDS011;5555;59.622;16.556;2022-12-01T06:40:26;12.80;;;9.37;;
11004;SDS011;5555;59.622;16.556;2022-12-01T06:42:51;13.87;;;9.87;;
11004;SDS011;5555;59.622;16.556;2022-12-01T06:45:17;14.50;;;9.80;;
11004;SDS011;5555;59.622;16.556;2022-12-01T06:47:43;15.33;;;10.20;;
11004;SDS011;5555;59.622;16.556;2022-12-01T06:50:09;18.47;;;10.20;;
11004;SDS011;5555;59.622;16.556;2022-12-01T06:52:35;15.57;;;10.30;;
11004;SDS011;5555;59.622;16.556;2022-12-01T06:55:02;16.00;;;9.73;;
11004;SDS011;5555;59.622;16.556;2022-12-01T06:57:29;16.50;;;10.40;;
11004;SDS011;5555;59.622;16.556;2022-12-01T06:59:55;14.67;;;10.23;;
11004;SDS011;5555;59.622;16.556;2022-12-01T07:02:20;16.00;;;10.80;;
11004;SDS011;5555;59.622;16.556;2022-12-01T07:04:47;15.07;;;10.10;;
11004;SDS011;5555;59.622;16.556;2022-12-01T07:07:12;14.90;;;10.70;;
11004;SDS011;5555;59.622;16.556;2022-12-01T07:09:38;17.33;;;9.77;;
11004;SDS011;5555;59.622;16.556;2022-12-01T07:12:04;16.73;;;10.53;;
11004;SDS011;5555;59.622;16.556;2022-12-01T07:14:30;16.23;;;10.80;;
11004;SDS011;5555;59.622;16.556;2022-12-01T07:16:59;17.60;;;11.23;;
11004;SDS011;5555;59.622;16.556;2022-12-01T07:19:24;15.47;;;10.67;;
11004;SDS011;5555;59.622;16.556;2022-12-01T07:21:50;17.77;;;15.93;;
11004;SDS011;5555;59.622;16.556;2022-12-01T07:24:16;16.73;;;11.17;;
11004;SDS011;5555;59.622;16.556;2022-12-01T07:26:41;16.30;;;11.20;;
11004;SDS011;5555;59.622;16.556;2022-12-01T07:29:08;15.43;;;11.00;;
11004;SDS011;5555;59.622;16.556;2022-12-01T07:31:36;15.80;;;11.10;;
11004;SDS011;5555;59.622;16.556;2022-12-01T07:34:02;15.17;;;10.70;;
11004;SDS011;5555;59.622;16.556;2022-12-01T07:36:29;15.10;;;11.13;;
11004;SDS011;5555;59.622;16.556;2022-12-01T07:38:55;15.87;;;10.67;;
11004;SDS011;5555;59.622;16.556;2022-12-01T07:41:20;15.17;;;10.30;;
11004;SDS011;5555;59.622;16.556;2022-12-01T07:43:46;14.60;;;10.40;;
11004;SDS011;5555;59.622;16.556;2022-12-01T07:46:16;12.73;;;9.30;;
11004;SDS011;5555;59.622;16.556;2022-12-01T07:48:46;16.17;;;10.33;;
11004;SDS011;5555;59.622;16.556;2022-12-01T07:51:13;13.50;;;9.63;;
11004;SDS011;5555;59.622;16.556;2022-12-01T07:53:42;14.33;;;10.77;;
11004;SDS011;5555;59.622;16.556;2022-12-01T07:56:09;15.00;;;10.10;;
11004;SDS011;5555;59.622;16.556;2022-12-01T07:58:35;15.40;;;11.03;;
11004;SDS011;5555;59.622;16.556;2022-12-01T08:01:05;16.17;;;10.20;;
11004;SDS011;5555;59.622;16.556;2022-12-01T08:03:32;13.47;;;10.73;;
11004;SDS011;5555;59.622;16.556;2022-12-01T08:05:58;14.03;;;9.97;;
11004;SDS011;5555;59.622;16.556;2022-12-01T08:08:25;12.90;;;9.53;;
11004;SDS011;5555;59.622;16.556;2022-12-01T08:10:51;15.20;;;10.17;;
11004;SDS011;5555;59.622;16.556;2022-12-01T08:13:18;13.03;;;9.63;;
11004;SDS011;5555;59.622;16.556;2022-12-01T08:15:44;16.33;;;10.47;;
11004;SDS011;5555;59.622;16.556;2022-12-01T08:18:10;15.40;;;10.53;;
11004;SDS011;5555;59.622;16.556;2022-12-01T08:20:35;14.27;;;9.63;;
11004;SDS011;5555;59.622;16.556;2022-12-01T08:23:01;13.17;;;9.73;;
11004;SDS011;5555;59.622;16.556;2022-12-01T08:25:27;13.47;;;9.27;;
11004;SDS011;5555;59.622;16.556;2022-12-01T08:27:54;12.30;;;9.27;;
11004;SDS011;5555;59.622;16.556;2022-12-01T08:30:20;15.53;;;10.43;;
11004;SDS011;5555;59.622;16.556;2022-12-01T08:32:46;15.77;;;9.97;;
11004;SDS011;5555;59.622;16.556;2022-12-01T08:35:12;15.03;;;10.57;;
11004;SDS011;5555;59.622;16.556;2022-12-01T08:37:39;13.47;;;10.03;;
11004;SDS011;5555;59.622;16.556;2022-12-01T08:40:05;13.53;;;9.70;;
11004;SDS011;5555;59.622;16.556;2022-12-01T08:42:31;13.07;;;9.60;;
11004;SDS011;5555;59.622;16.556;2022-12-01T08:44:57;16.67;;;10.23;;
11004;SDS011;5555;59.622;16.556;2022-12-01T08:47:22;12.67;;;10.00;;
11004;SDS011;5555;59.622;16.556;2022-12-01T08:49:48;13.77;;;9.87;;
11004;SDS011;5555;59.622;16.556;2022-12-01T08:52:13;13.33;;;9.67;;
11004;SDS011;5555;59.622;16.556;2022-12-01T08:54:39;12.33;;;9.87;;
11004;SDS011;5555;59.622;16.556;2022-12-01T08:57:05;15.80;;;9.53;;
11004;SDS011;5555;59.622;16.556;2022-12-01T08:59:31;12.30;;;9.30;;
11004;SDS011;5555;59.622;16.556;2022-12-01T09:01:56;13.83;;;9.27;;
11004;SDS011;5555;59.622;16.556;2022-12-01T09:04:23;13.57;;;10.13;;
11004;SDS011;5555;59.622;16.556;2022-12-01T09:06:49;13.70;;;9.57;;
11004;SDS011;5555;59.622;16.556;2022-12-01T09:09:20;12.10;;;9.40;;
11004;SDS011;5555;59.622;16.556;2022-12-01T09:11:51;12.73;;;9.57;;
11004;SDS011;5555;59.622;16.556;2022-12-01T09:14:17;15.80;;;9.47;;
11004;SDS011;5555;59.622;16.556;2022-12-01T09:16:44;13.87;;;9.73;;
11004;SDS011;5555;59.622;16.556;2022-12-01T09:19:13;14.03;;;9.63;;
11004;SDS011;5555;59.622;16.556;2022-12-01T09:21:40;12.23;;;8.97;;
11004;SDS011;5555;59.622;16.556;2022-12-01T09:24:08;15.40;;;9.80;;
11004;SDS011;5555;59.622;16.556;2022-12-01T09:26:35;14.17;;;12.73;;
11004;SDS011;5555;59.622;16.556;2022-12-01T09:29:03;14.80;;;9.83;;
11004;SDS011;5555;59.622;16.556;2022-12-01T09:31:31;11.93;;;8.77;;
11004;SDS011;5555;59.622;16.556;2022-12-01T09:33:58;12.27;;;8.40;;
11004;SDS011;5555;59.622;16.556;2022-12-01T09:36:26;10.60;;;8.40;;
11004;SDS011;5555;59.622;16.556;2022-12-01T09:38:53;13.33;;;9.63;;
11004;SDS011;5555;59.622;16.556;2022-12-01T09:41:20;12.93;;;9.27;;
11004;SDS011;5555;59.622;16.556;2022-12-01T09:43:53;10.63;;;8.77;;
11004;SDS011;5555;59.622;16.556;2022-12-01T09:46:31;12.37;;;8.63;;
11004;SDS011;5555;59.622;16.556;2022-12-01T09:49:05;11.27;;;8.33;;
11004;SDS011;5555;59.622;16.556;2022-12-01T09:51:55;13.37;;;9.67;;
11004;SDS011;5555;59.622;16.556;2022-12-01T09:54:23;14.57;;;9.63;;
11004;SDS011;5555;59.622;16.556;2022-12-01T09:56:50;11.83;;;9.20;;
11004;SDS011;5555;59.622;16.556;2022-12-01T09:59:20;12.23;;;9.57;;
11004;SDS011;5555;59.622;16.556;2022-12-01T10:01:48;13.20;;;9.83;;
11004;SDS011;5555;59.622;16.556;2022-12-01T10:04:43;14.23;;;9.77;;
11004;SDS011;5555;59.622;16.556;2022-12-01T10:07:20;13.37;;;9.73;;
11004;SDS011;5555;59.622;16.556;2022-12-01T10:10:00;13.50;;;9.80;;
11004;SDS011;5555;59.622;16.556;2022-12-01T10:12:31;14.87;;;10.53;;
11004;SDS011;5555;59.622;16.556;2022-12-01T10:23:33;13.97;;;9.47;;
11004;SDS011;5555;59.622;16.556;2022-12-01T10:26:09;11.70;;;9.40;;
11004;SDS011;5555;59.622;16.556;2022-12-01T10:34:21;11.80;;;9.20;;
11004;SDS011;5555;59.622;16.556;2022-12-01T10:36:47;13.37;;;9.37;;
11004;SDS011;5555;59.622;16.556;2022-12-01T10:39:15;12.73;;;8.00;;
11004;SDS011;5555;59.622;16.556;2022-12-01T10:42:03;14.07;;;9.97;;
11004;SDS011;5555;59.622;16.556;2022-12-01T10:44:33;15.23;;;10.80;;
11004;SDS011;5555;59.622;16.556;2022-12-01T10:46:59;14.93;;;11.00;;
11004;SDS011;5555;59.622;16.556;2022-12-01T10:49:39;14.73;;;9.90;;
11004;SDS011;5555;59.622;16.556;2022-12-01T10:52:05;14.43;;;10.70;;
11004;SDS011;5555;59.622;16.556;2022-12-01T10:54:36;13.67;;;10.20;;
11004;SDS011;5555;59.622;16.556;2022-12-01T10:57:03;13.20;;;10.57;;
11004;SDS011;5555;59.622;16.556;2022-12-01T10:59:38;12.87;;;9.53;;
11004;SDS011;5555;59.622;16.556;2022-12-01T11:02:21;13.20;;;9.30;;
11004;SDS011;5555;59.622;16.556;2022-12-01T11:05:05;13.07;;;9.60;;
11004;SDS011;5555;59.622;16.556;2022-12-01T11:07:44;12.13;;;9.93;;
11004;SDS011;5555;59.622;16.556;2022-12-01T11:10:29;14.40;;;12.93;;
11004;SDS011;5555;59.622;16.556;2022-12-01T11:15:54;12.87;;;9.07;;
11004;SDS011;5555;59.622;16.556;2022-12-01T11:18:42;12.90;;;10.00;;
11004;SDS011;5555;59.622;16.556;2022-12-01T11:21:08;11.73;;;9.53;;
11004;SDS011;5555;59.622;16.556;2022-12-01T11:23:44;13.30;;;9.57;;
11004;SDS011;5555;59.622;16.556;2022-12-01T11:26:27;13.20;;;10.67;;
11004;SDS011;5555;59.622;16.556;2022-12-01T11:28:56;13.53;;;9.97;;
11004;SDS011;5555;59.622;16.556;2022-12-01T11:31:35;12.40;;;9.20;;
11004;SDS011;5555;59.622;16.556;2022-12-01T11:34:05;13.27;;;9.70;;
11004;SDS011;5555;59.622;16.556;2022-12-01T11:36:48;14.27;;;9.90;;
11004;SDS011;5555;59.622;16.556;2022-12-01T11:39:36;15.23;;;10.27;;
11004;SDS011;5555;59.622;16.556;2022-12-01T11:44:35;12.43;;;9.90;;
11004;SDS011;5555;59.622;16.556;2022-12-01T11:47:15;14.37;;;9.90;;
11004;SDS011;5555;59.622;16.556;2022-12-01T11:49:43;13.73;;;9.67;;
11004;SDS011;5555;59.622;16.556;2022-12-01T11:52:22;12.47;;;10.00;;
11004;SDS011;5555;59.622;16.556;2022-12-01T11:54:58;13.40;;;10.67;;
11004;SDS011;5555;59.622;16.556;2022-12-01T11:57:26;14.00;;;10.10;;
11004;SDS011;5555;59.622;16.556;2022-12-01T11:59:53;14.47;;;10.17;;
11004;SDS011;5555;59.622;16.556;2022-12-01T12:02:26;12.00;;;9.50;;
11004;SDS011;5555;59.622;16.556;2022-12-01T12:05:06;11.33;;;9.63;;
11004;SDS011;5555;59.622;16.556;2022-12-01T12:07:52;12.67;;;9.33;;
11004;SDS011;5555;59.622;16.556;2022-12-01T12:10:50;11.70;;;9.00;;
11004;SDS011;5555;59.622;16.556;2022-12-01T12:13:57;14.47;;;9.77;;
11004;SDS011;5555;59.622;16.556;2022-12-01T12:16:48;12.87;;;9.87;;
11004;SDS011;5555;59.622;16.556;2022-12-01T12:19:49;13.60;;;10.30;;
11004;SDS011;5555;59.622;16.556;2022-12-01T12:35:28;14.40;;;10.27;;
11004;SDS011;5555;59.622;16.556;2022-12-01T12:38:30;12.30;;;10.00;;
11004;SDS011;5555;59.622;16.556;2022-12-01T12:41:20;14.53;;;10.60;;
11004;SDS011;5555;59.622;16.556;2022-12-01T12:46:28;13.47;;;10.47;;
11004;SDS011;5555;59.622;16.556;2022-12-01T12:51:42;15.43;;;13.87;;
11004;SDS011;5555;59.622;16.556;2022-12-01T12:54:23;15.73;;;14.03;;
11004;SDS011;5555;59.622;16.556;2022-12-01T12:56:56;13.13;;;10.33;;
11004;SDS011;5555;59.622;16.556;2022-12-01T12:59:30;12.43;;;10.03;;
11004;SDS011;5555;59.622;16.556;2022-12-01T13:02:17;14.57;;;10.73;;
11004;SDS011;5555;59.622;16.556;2022-12-01T13:07:40;12.57;;;10.17;;
11004;SDS011;5555;59.622;16.556;2022-12-01T13:13:23;16.60;;;15.00;;
11004;SDS011;5555;59.622;16.556;2022-12-01T13:16:12;13.93;;;10.33;;
11004;SDS011;5555;59.622;16.556;2022-12-01T13:18:48;13.40;;;10.43;;
11004;SDS011;5555;59.622;16.556;2022-12-01T13:21:21;16.07;;;11.30;;
11004;SDS011;5555;59.622;16.556;2022-12-01T13:23:48;15.00;;;10.83;;
11004;SDS011;5555;59.622;16.556;2022-12-01T13:26:16;15.17;;;11.43;;
11004;SDS011;5555;59.622;16.556;2022-12-01T13:31:18;15.87;;;11.00;;
11004;SDS011;5555;59.622;16.556;2022-12-01T13:33:58;15.27;;;11.33;;
11004;SDS011;5555;59.622;16.556;2022-12-01T13:36:25;16.20;;;11.00;;
11004;SDS011;5555;59.622;16.556;2022-12-01T13:39:15;16.37;;;10.43;;
11004;SDS011;5555;59.622;16.556;2022-12-01T13:44:53;14.40;;;10.57;;
11004;SDS011;5555;59.622;16.556;2022-12-01T13:53:08;15.93;;;11.53;;
11004;SDS011;5555;59.622;16.556;2022-12-01T13:58:24;17.00;;;11.30;;
11004;SDS011;5555;59.622;16.556;2022-12-01T14:03:51;18.00;;;11.90;;
11004;SDS011;5555;59.622;16.556;2022-12-01T14:06:44;17.23;;;12.57;;
11004;SDS011;5555;59.622;16.556;2022-12-01T14:12:00;18.80;;;11.80;;
11004;SDS011;5555;59.622;16.556;2022-12-01T14:14:36;19.20;;;12.37;;
11004;SDS011;5555;59.622;16.556;2022-12-01T14:17:04;20.90;;;17.67;;
11004;SDS011;5555;59.622;16.556;2022-12-01T14:27:48;25.23;;;18.53;;
11004;SDS011;5555;59.622;16.556;2022-12-01T14:36:34;30.13;;;14.03;;
11004;SDS011;5555;59.622;16.556;2022-12-01T14:39:08;35.30;;;22.33;;
11004;SDS011;5555;59.622;16.556;2022-12-01T14:41:54;20.80;;;13.03;;
11004;SDS011;5555;59.622;16.556;2022-12-01T14:54:56;25.03;;;13.33;;
11004;SDS011;5555;59.622;16.556;2022-12-01T14:57:33;25.77;;;13.10;;
11004;SDS011;5555;59.622;16.556;2022-12-01T15:02:46;23.07;;;13.57;;
11004;SDS011;5555;59.622;16.556;2022-12-01T15:05:20;27.37;;;13.30;;
11004;SDS011;5555;59.622;16.556;2022-12-01T15:07:54;29.00;;;12.63;;
11004;SDS011;5555;59.622;16.556;2022-12-01T15:12:47;19.47;;;10.83;;
11004;SDS011;5555;59.622;16.556;2022-12-01T15:15:22;28.43;;;12.43;;
11004;SDS011;5555;59.622;16.556;2022-12-01T15:17:49;36.93;;;15.10;;
11004;SDS011;5555;59.622;16.556;2022-12-01T15:20:30;30.07;;;13.20;;
11004;SDS011;5555;59.622;16.556;2022-12-01T15:22:58;25.90;;;12.70;;
11004;SDS011;5555;59.622;16.556;2022-12-01T15:25:30;37.60;;;12.33;;
11004;SDS011;5555;59.622;16.556;2022-12-01T15:28:08;31.10;;;13.33;;
11004;SDS011;5555;59.622;16.556;2022-12-01T15:30:39;30.57;;;12.90;;
11004;SDS011;5555;59.622;16.556;2022-12-01T15:33:07;43.40;;;15.10;;
11004;SDS011;5555;59.622;16.556;2022-12-01T15:35:42;25.37;;;11.83;;
11004;SDS011;5555;59.622;16.556;2022-12-01T15:38:11;27.93;;;12.53;;
11004;SDS011;5555;59.622;16.556;2022-12-01T15:40:44;28.17;;;10.97;;
11004;SDS011;5555;59.622;16.556;2022-12-01T15:43:20;37.60;;;13.73;;
11004;SDS011;5555;59.622;16.556;2022-12-01T15:45:54;42.53;;;12.97;;
11004;SDS011;5555;59.622;16.556;2022-12-01T15:48:25;51.10;;;14.73;;
11004;SDS011;5555;59.622;16.556;2022-12-01T15:50:58;54.17;;;15.57;;
11004;SDS011;5555;59.622;16.556;2022-12-01T15:53:28;49.60;;;14.73;;
11004;SDS011;5555;59.622;16.556;2022-12-01T15:55:57;46.27;;;13.67;;
11004;SDS011;5555;59.622;16.556;2022-12-01T15:58:27;38.27;;;15.47;;
11004;SDS011;5555;59.622;16.556;2022-12-01T16:00:59;47.07;;;14.87;;
11004;SDS011;5555;59.622;16.556;2022-12-01T16:03:26;52.97;;;15.03;;
11004;SDS011;5555;59.622;16.556;2022-12-01T16:05:53;44.00;;;14.43;;
11004;SDS011;5555;59.622;16.556;2022-12-01T16:08:20;41.80;;;13.23;;
11004;SDS011;5555;59.622;16.556;2022-12-01T16:13:43;37.40;;;12.67;;
11004;SDS011;5555;59.622;16.556;2022-12-01T16:16:19;29.10;;;12.90;;
11004;SDS011;5555;59.622;16.556;2022-12-01T16:18:52;42.83;;;14.57;;
11004;SDS011;5555;59.622;16.556;2022-12-01T16:21:20;58.30;;;13.83;;
11004;SDS011;5555;59.622;16.556;2022-12-01T16:23:47;82.87;;;15.73;;
11004;SDS011;5555;59.622;16.556;2022-12-01T16:26:13;82.17;;;15.00;;
11004;SDS011;5555;59.622;16.556;2022-12-01T16:28:39;54.80;;;13.60;;
11004;SDS011;5555;59.622;16.556;2022-12-01T16:31:05;47.03;;;12.97;;
11004;SDS011;5555;59.622;16.556;2022-12-01T16:33:32;34.70;;;12.07;;
11004;SDS011;5555;59.622;16.556;2022-12-01T16:36:02;41.40;;;14.27;;
11004;SDS011;5555;59.622;16.556;2022-12-01T16:38:28;46.33;;;13.53;;
11004;SDS011;5555;59.622;16.556;2022-12-01T16:40:55;40.57;;;12.93;;
11004;SDS011;5555;59.622;16.556;2022-12-01T16:43:25;33.37;;;11.67;;
11004;SDS011;5555;59.622;16.556;2022-12-01T16:46:02;31.43;;;12.83;;
11004;SDS011;5555;59.622;16.556;2022-12-01T16:48:30;33.70;;;12.37;;
11004;SDS011;5555;59.622;16.556;2022-12-01T16:50:56;25.57;;;12.33;;
11004;SDS011;5555;59.622;16.556;2022-12-01T16:53:27;28.17;;;11.40;;
11004;SDS011;5555;59.622;16.556;2022-12-01T16:55:54;25.27;;;10.93;;
11004;SDS011;5555;59.622;16.556;2022-12-01T16:58:21;25.50;;;13.00;;
11004;SDS011;5555;59.622;16.556;2022-12-01T17:00:47;28.37;;;12.67;;
11004;SDS011;5555;59.622;16.556;2022-12-01T17:03:22;25.20;;;10.70;;
11004;SDS011;5555;59.622;16.556;2022-12-01T17:05:49;30.97;;;11.10;;